Accueil
METAR-TAF:

METAR-TAF

Aéroports :

Cambridge, Angleterre

Aéroport international de Cambridge

latitude: 52-12N, longitude: 000-11E, altitude: 15 m

Observation

Le bulletin a été fait il y a 13 heures et 56 minutes, à 16:50 UTC
Vent 8 kt de sud/sud-est
Température 18°C
Humidité 73%
Pression 1017 hPa
Visibilité 10 km ou plus
faibles averses de pluie

METAR: EGSC 211650Z 15008KT 9999 -SHRA NSC 18/13 Q1017

Heure: 07:46 (06:46 UTC)

Prévision

Le bulletin a été fait il y a 16 heures et 45 minutes, à 14:01 UTC
Prévision valable du 21 à 15 UTC au 21 à 19 UTC
Vent 10 kt de sud/sud-est
Visibilité 10 km ou plus
pas de nuages en-dessous de 1500 mètres et pas de cumulonimbus.
Probabilité 30% :
Temporairement
du 21 à 16 UTC au 21 à 19 UTC
Visibilité: 5000 m
Nuages fragmentés à une hauteur de 4500 ft, Cumulonimbus.
fortes averses de pluie, orage, grêle

TAF: EGSC 211401Z 2115/2119 15010KT CAVOK PROB30 TEMPO 2116/2119 5000 +SHRA TSGR BKN045CB

Observations et prévisions météorologiques de plus de 4000 aéroports (messages METAR et TAF).

Les stations disponibles sont représentées par des disques jaunes et rouges sur la carte.

Passer la souris dessus pour voir le nom de la station.

Cliquer dessus pour voir les observations et prévisions météorologiques.

Pour changer de carte: cliquez sur les boutons verts avec une croix noire pour zoomer, sur le bouton vert avec un tiret pour effectuer un zoom arrière, ou sur les flèches vertes pour les cartes adjacentes.


METAR-TAF: